sensor_id;sensor_type;location;lat;lon;timestamp;P1;durP1;ratioP1;P2;durP2;ratioP2
22965;SDS011;11649;48.090;9.754;2023-08-20T00:01:06;8.35;;;6.25;;
22965;SDS011;11649;48.090;9.754;2023-08-20T00:03:38;7.13;;;6.40;;
22965;SDS011;11649;48.090;9.754;2023-08-20T00:06:06;10.30;;;6.05;;
22965;SDS011;11649;48.090;9.754;2023-08-20T00:08:33;10.02;;;6.35;;
22965;SDS011;11649;48.090;9.754;2023-08-20T00:11:01;7.88;;;6.53;;
22965;SDS011;11649;48.090;9.754;2023-08-20T00:13:29;7.85;;;6.18;;
22965;SDS011;11649;48.090;9.754;2023-08-20T00:15:55;6.95;;;6.20;;
22965;SDS011;11649;48.090;9.754;2023-08-20T00:18:23;7.68;;;6.53;;
22965;SDS011;11649;48.090;9.754;2023-08-20T00:20:50;11.35;;;7.28;;
22965;SDS011;11649;48.090;9.754;2023-08-20T00:23:17;10.68;;;6.40;;
22965;SDS011;11649;48.090;9.754;2023-08-20T00:25:44;9.50;;;6.70;;
22965;SDS011;11649;48.090;9.754;2023-08-20T00:28:11;9.80;;;6.10;;
22965;SDS011;11649;48.090;9.754;2023-08-20T00:30:38;9.55;;;5.93;;
22965;SDS011;11649;48.090;9.754;2023-08-20T00:33:04;9.93;;;6.55;;
22965;SDS011;11649;48.090;9.754;2023-08-20T00:35:31;10.02;;;6.60;;
22965;SDS011;11649;48.090;9.754;2023-08-20T00:37:59;8.25;;;7.07;;
22965;SDS011;11649;48.090;9.754;2023-08-20T00:40:25;9.13;;;6.47;;
22965;SDS011;11649;48.090;9.754;2023-08-20T00:42:52;8.52;;;6.45;;
22965;SDS011;11649;48.090;9.754;2023-08-20T00:45:19;7.93;;;6.82;;
22965;SDS011;11649;48.090;9.754;2023-08-20T00:47:46;9.57;;;6.10;;
22965;SDS011;11649;48.090;9.754;2023-08-20T00:50:13;8.27;;;6.43;;
22965;SDS011;11649;48.090;9.754;2023-08-20T00:52:40;6.75;;;6.05;;
22965;SDS011;11649;48.090;9.754;2023-08-20T00:55:08;7.75;;;6.20;;
22965;SDS011;11649;48.090;9.754;2023-08-20T00:57:37;8.30;;;6.35;;
22965;SDS011;11649;48.090;9.754;2023-08-20T01:00:04;7.57;;;6.60;;
22965;SDS011;11649;48.090;9.754;2023-08-20T01:02:38;10.85;;;6.20;;
22965;SDS011;11649;48.090;9.754;2023-08-20T01:05:06;11.20;;;7.00;;
22965;SDS011;11649;48.090;9.754;2023-08-20T01:10:08;8.77;;;6.53;;
22965;SDS011;11649;48.090;9.754;2023-08-20T01:12:43;12.45;;;6.80;;
22965;SDS011;11649;48.090;9.754;2023-08-20T01:15:12;6.93;;;6.00;;
22965;SDS011;11649;48.090;9.754;2023-08-20T01:17:43;6.93;;;6.18;;
22965;SDS011;11649;48.090;9.754;2023-08-20T01:20:12;7.68;;;6.90;;
22965;SDS011;11649;48.090;9.754;2023-08-20T01:30:35;6.55;;;5.70;;
22965;SDS011;11649;48.090;9.754;2023-08-20T01:33:03;11.05;;;7.00;;
22965;SDS011;11649;48.090;9.754;2023-08-20T01:35:31;9.88;;;6.78;;
22965;SDS011;11649;48.090;9.754;2023-08-20T01:37:58;9.40;;;6.50;;
22965;SDS011;11649;48.090;9.754;2023-08-20T01:40:25;7.40;;;6.28;;
22965;SDS011;11649;48.090;9.754;2023-08-20T01:42:51;7.68;;;6.10;;
22965;SDS011;11649;48.090;9.754;2023-08-20T01:45:18;9.18;;;6.90;;
22965;SDS011;11649;48.090;9.754;2023-08-20T01:47:45;7.13;;;6.43;;
22965;SDS011;11649;48.090;9.754;2023-08-20T01:50:12;9.80;;;6.63;;
22965;SDS011;11649;48.090;9.754;2023-08-20T01:52:39;7.63;;;6.72;;
22965;SDS011;11649;48.090;9.754;2023-08-20T01:55:06;8.90;;;6.38;;
22965;SDS011;11649;48.090;9.754;2023-08-20T01:57:33;6.72;;;6.03;;
22965;SDS011;11649;48.090;9.754;2023-08-20T02:00:00;11.70;;;6.07;;
22965;SDS011;11649;48.090;9.754;2023-08-20T02:02:27;10.75;;;6.40;;
22965;SDS011;11649;48.090;9.754;2023-08-20T02:04:54;7.25;;;6.10;;
22965;SDS011;11649;48.090;9.754;2023-08-20T02:07:21;6.75;;;5.78;;
22965;SDS011;11649;48.090;9.754;2023-08-20T02:09:47;6.57;;;5.93;;
22965;SDS011;11649;48.090;9.754;2023-08-20T02:12:14;8.50;;;6.30;;
22965;SDS011;11649;48.090;9.754;2023-08-20T02:14:41;7.25;;;5.65;;
22965;SDS011;11649;48.090;9.754;2023-08-20T02:17:08;10.50;;;5.47;;
22965;SDS011;11649;48.090;9.754;2023-08-20T02:19:35;7.43;;;5.60;;
22965;SDS011;11649;48.090;9.754;2023-08-20T02:22:02;6.13;;;5.60;;
22965;SDS011;11649;48.090;9.754;2023-08-20T02:24:29;6.35;;;5.75;;
22965;SDS011;11649;48.090;9.754;2023-08-20T02:26:55;8.50;;;6.13;;
22965;SDS011;11649;48.090;9.754;2023-08-20T02:29:23;10.45;;;6.30;;
22965;SDS011;11649;48.090;9.754;2023-08-20T02:31:49;8.90;;;6.00;;
22965;SDS011;11649;48.090;9.754;2023-08-20T02:34:16;8.23;;;5.88;;
22965;SDS011;11649;48.090;9.754;2023-08-20T02:36:43;10.27;;;6.05;;
22965;SDS011;11649;48.090;9.754;2023-08-20T02:39:10;8.70;;;5.90;;
22965;SDS011;11649;48.090;9.754;2023-08-20T02:41:36;9.43;;;5.63;;
22965;SDS011;11649;48.090;9.754;2023-08-20T02:44:03;12.60;;;6.18;;
22965;SDS011;11649;48.090;9.754;2023-08-20T02:46:30;8.02;;;5.65;;
22965;SDS011;11649;48.090;9.754;2023-08-20T02:48:57;7.10;;;5.95;;
22965;SDS011;11649;48.090;9.754;2023-08-20T02:51:24;9.95;;;6.15;;
22965;SDS011;11649;48.090;9.754;2023-08-20T02:53:51;10.15;;;6.00;;
22965;SDS011;11649;48.090;9.754;2023-08-20T02:56:17;8.40;;;6.68;;
22965;SDS011;11649;48.090;9.754;2023-08-20T02:58:44;8.30;;;5.68;;
22965;SDS011;11649;48.090;9.754;2023-08-20T03:01:18;13.07;;;6.50;;
22965;SDS011;11649;48.090;9.754;2023-08-20T03:03:49;10.50;;;6.07;;
22965;SDS011;11649;48.090;9.754;2023-08-20T03:06:16;9.15;;;6.47;;
22965;SDS011;11649;48.090;9.754;2023-08-20T03:08:43;12.00;;;7.32;;
22965;SDS011;11649;48.090;9.754;2023-08-20T03:11:09;11.38;;;6.93;;
22965;SDS011;11649;48.090;9.754;2023-08-20T03:13:36;13.00;;;6.57;;
22965;SDS011;11649;48.090;9.754;2023-08-20T03:16:03;12.23;;;5.85;;
22965;SDS011;11649;48.090;9.754;2023-08-20T03:18:30;8.77;;;5.93;;
22965;SDS011;11649;48.090;9.754;2023-08-20T03:20:57;9.68;;;6.93;;
22965;SDS011;11649;48.090;9.754;2023-08-20T03:23:23;9.25;;;6.32;;
22965;SDS011;11649;48.090;9.754;2023-08-20T03:25:50;13.88;;;6.88;;
22965;SDS011;11649;48.090;9.754;2023-08-20T03:28:18;9.80;;;6.40;;
22965;SDS011;11649;48.090;9.754;2023-08-20T03:30:45;12.32;;;6.53;;
22965;SDS011;11649;48.090;9.754;2023-08-20T03:33:12;9.02;;;6.30;;
22965;SDS011;11649;48.090;9.754;2023-08-20T03:35:39;9.63;;;6.57;;
22965;SDS011;11649;48.090;9.754;2023-08-20T03:38:06;10.35;;;5.70;;
22965;SDS011;11649;48.090;9.754;2023-08-20T03:40:32;7.35;;;5.82;;
22965;SDS011;11649;48.090;9.754;2023-08-20T03:42:59;9.20;;;6.20;;
22965;SDS011;11649;48.090;9.754;2023-08-20T03:45:27;7.43;;;6.60;;
22965;SDS011;11649;48.090;9.754;2023-08-20T03:47:54;8.32;;;6.53;;
22965;SDS011;11649;48.090;9.754;2023-08-20T03:50:21;11.00;;;6.72;;
22965;SDS011;11649;48.090;9.754;2023-08-20T03:52:48;7.18;;;6.47;;
22965;SDS011;11649;48.090;9.754;2023-08-20T03:55:14;8.98;;;6.60;;
22965;SDS011;11649;48.090;9.754;2023-08-20T03:57:41;6.80;;;6.10;;
22965;SDS011;11649;48.090;9.754;2023-08-20T04:00:09;9.55;;;6.50;;
22965;SDS011;11649;48.090;9.754;2023-08-20T04:02:36;7.25;;;6.55;;
22965;SDS011;11649;48.090;9.754;2023-08-20T04:05:03;8.40;;;6.70;;
22965;SDS011;11649;48.090;9.754;2023-08-20T04:07:30;8.05;;;6.30;;
22965;SDS011;11649;48.090;9.754;2023-08-20T04:09:57;7.55;;;6.70;;
22965;SDS011;11649;48.090;9.754;2023-08-20T04:12:24;8.32;;;7.32;;
22965;SDS011;11649;48.090;9.754;2023-08-20T04:14:50;9.65;;;7.55;;
22965;SDS011;11649;48.090;9.754;2023-08-20T04:17:17;10.35;;;8.23;;
22965;SDS011;11649;48.090;9.754;2023-08-20T04:19:44;10.73;;;7.15;;
22965;SDS011;11649;48.090;9.754;2023-08-20T04:22:11;11.07;;;7.72;;
22965;SDS011;11649;48.090;9.754;2023-08-20T04:24:38;11.23;;;8.27;;
22965;SDS011;11649;48.090;9.754;2023-08-20T04:27:05;10.85;;;7.72;;
22965;SDS011;11649;48.090;9.754;2023-08-20T04:29:32;8.82;;;7.30;;
22965;SDS011;11649;48.090;9.754;2023-08-20T04:31:59;8.38;;;7.10;;
22965;SDS011;11649;48.090;9.754;2023-08-20T04:34:26;11.20;;;7.28;;
22965;SDS011;11649;48.090;9.754;2023-08-20T04:36:52;7.97;;;7.00;;
22965;SDS011;11649;48.090;9.754;2023-08-20T04:39:19;11.35;;;7.63;;
22965;SDS011;11649;48.090;9.754;2023-08-20T04:41:46;7.90;;;6.60;;
22965;SDS011;11649;48.090;9.754;2023-08-20T04:44:13;10.35;;;6.68;;
22965;SDS011;11649;48.090;9.754;2023-08-20T04:46:40;7.30;;;6.07;;
22965;SDS011;11649;48.090;9.754;2023-08-20T04:49:06;8.38;;;7.10;;
22965;SDS011;11649;48.090;9.754;2023-08-20T04:51:33;7.82;;;7.03;;
22965;SDS011;11649;48.090;9.754;2023-08-20T04:54:00;9.95;;;7.20;;
22965;SDS011;11649;48.090;9.754;2023-08-20T04:56:27;9.00;;;6.90;;
22965;SDS011;11649;48.090;9.754;2023-08-20T04:58:53;9.80;;;7.10;;
22965;SDS011;11649;48.090;9.754;2023-08-20T05:01:20;8.18;;;7.13;;
22965;SDS011;11649;48.090;9.754;2023-08-20T05:03:47;10.93;;;7.60;;
22965;SDS011;11649;48.090;9.754;2023-08-20T05:06:14;10.32;;;7.30;;
22965;SDS011;11649;48.090;9.754;2023-08-20T05:08:42;8.10;;;7.38;;
22965;SDS011;11649;48.090;9.754;2023-08-20T05:11:09;9.40;;;7.95;;
22965;SDS011;11649;48.090;9.754;2023-08-20T05:13:36;10.07;;;7.22;;
22965;SDS011;11649;48.090;9.754;2023-08-20T05:16:03;7.32;;;6.63;;
22965;SDS011;11649;48.090;9.754;2023-08-20T05:18:30;8.38;;;7.50;;
22965;SDS011;11649;48.090;9.754;2023-08-20T05:20:56;9.57;;;7.85;;
22965;SDS011;11649;48.090;9.754;2023-08-20T05:23:23;12.23;;;8.27;;
22965;SDS011;11649;48.090;9.754;2023-08-20T05:25:50;9.52;;;8.52;;
22965;SDS011;11649;48.090;9.754;2023-08-20T05:28:16;12.05;;;8.48;;
22965;SDS011;11649;48.090;9.754;2023-08-20T05:30:43;10.27;;;8.18;;
22965;SDS011;11649;48.090;9.754;2023-08-20T05:33:10;14.85;;;9.38;;
22965;SDS011;11649;48.090;9.754;2023-08-20T05:35:37;12.25;;;8.80;;
22965;SDS011;11649;48.090;9.754;2023-08-20T05:38:04;10.77;;;8.95;;
22965;SDS011;11649;48.090;9.754;2023-08-20T05:40:31;11.45;;;8.77;;
22965;SDS011;11649;48.090;9.754;2023-08-20T05:42:58;9.93;;;8.95;;
22965;SDS011;11649;48.090;9.754;2023-08-20T05:45:25;9.07;;;8.18;;
22965;SDS011;11649;48.090;9.754;2023-08-20T05:47:52;10.85;;;8.80;;
22965;SDS011;11649;48.090;9.754;2023-08-20T05:50:19;10.57;;;8.35;;
22965;SDS011;11649;48.090;9.754;2023-08-20T05:52:45;11.90;;;8.85;;
22965;SDS011;11649;48.090;9.754;2023-08-20T05:55:12;15.05;;;9.02;;
22965;SDS011;11649;48.090;9.754;2023-08-20T05:57:39;11.80;;;10.55;;
22965;SDS011;11649;48.090;9.754;2023-08-20T06:00:07;13.50;;;10.68;;
22965;SDS011;11649;48.090;9.754;2023-08-20T06:02:34;10.50;;;9.40;;
22965;SDS011;11649;48.090;9.754;2023-08-20T06:05:02;16.60;;;12.18;;
22965;SDS011;11649;48.090;9.754;2023-08-20T06:07:31;14.90;;;12.15;;
22965;SDS011;11649;48.090;9.754;2023-08-20T06:09:57;13.68;;;11.65;;
22965;SDS011;11649;48.090;9.754;2023-08-20T06:12:24;14.68;;;13.07;;
22965;SDS011;11649;48.090;9.754;2023-08-20T06:14:51;18.13;;;13.52;;
22965;SDS011;11649;48.090;9.754;2023-08-20T06:17:18;16.70;;;13.43;;
22965;SDS011;11649;48.090;9.754;2023-08-20T06:19:45;12.85;;;11.48;;
22965;SDS011;11649;48.090;9.754;2023-08-20T06:22:14;14.32;;;11.48;;
22965;SDS011;11649;48.090;9.754;2023-08-20T06:24:43;14.48;;;10.63;;
22965;SDS011;11649;48.090;9.754;2023-08-20T06:27:12;13.73;;;11.07;;
22965;SDS011;11649;48.090;9.754;2023-08-20T06:29:39;13.75;;;11.10;;
22965;SDS011;11649;48.090;9.754;2023-08-20T06:32:06;13.10;;;11.70;;
22965;SDS011;11649;48.090;9.754;2023-08-20T06:37:35;12.27;;;10.60;;
22965;SDS011;11649;48.090;9.754;2023-08-20T06:43:30;14.07;;;10.70;;
22965;SDS011;11649;48.090;9.754;2023-08-20T06:46:27;11.70;;;9.30;;
22965;SDS011;11649;48.090;9.754;2023-08-20T06:49:09;10.70;;;9.00;;
22965;SDS011;11649;48.090;9.754;2023-08-20T06:52:19;10.48;;;9.02;;
22965;SDS011;11649;48.090;9.754;2023-08-20T06:55:27;12.43;;;10.73;;
22965;SDS011;11649;48.090;9.754;2023-08-20T06:58:23;12.02;;;10.70;;
22965;SDS011;11649;48.090;9.754;2023-08-20T07:00:55;11.82;;;9.15;;
22965;SDS011;11649;48.090;9.754;2023-08-20T07:03:22;9.85;;;8.95;;
22965;SDS011;11649;48.090;9.754;2023-08-20T07:05:49;13.23;;;10.32;;
22965;SDS011;11649;48.090;9.754;2023-08-20T07:08:16;10.35;;;9.25;;
22965;SDS011;11649;48.090;9.754;2023-08-20T07:10:42;15.77;;;9.10;;
22965;SDS011;11649;48.090;9.754;2023-08-20T07:13:09;12.98;;;9.35;;
22965;SDS011;11649;48.090;9.754;2023-08-20T07:15:36;10.95;;;9.65;;
22965;SDS011;11649;48.090;9.754;2023-08-20T07:18:03;13.15;;;9.13;;
22965;SDS011;11649;48.090;9.754;2023-08-20T07:20:30;10.18;;;8.63;;
22965;SDS011;11649;48.090;9.754;2023-08-20T07:22:58;13.20;;;9.13;;
22965;SDS011;11649;48.090;9.754;2023-08-20T07:25:25;11.10;;;8.80;;
22965;SDS011;11649;48.090;9.754;2023-08-20T07:27:51;10.63;;;8.38;;
22965;SDS011;11649;48.090;9.754;2023-08-20T07:30:18;10.27;;;9.02;;
22965;SDS011;11649;48.090;9.754;2023-08-20T07:32:45;9.80;;;8.75;;
22965;SDS011;11649;48.090;9.754;2023-08-20T07:35:12;10.82;;;8.55;;
22965;SDS011;11649;48.090;9.754;2023-08-20T07:37:59;11.77;;;8.88;;
22965;SDS011;11649;48.090;9.754;2023-08-20T07:53:58;8.20;;;7.32;;
22965;SDS011;11649;48.090;9.754;2023-08-20T07:57:19;8.80;;;7.18;;
22965;SDS011;11649;48.090;9.754;2023-08-20T07:59:49;9.68;;;7.38;;
22965;SDS011;11649;48.090;9.754;2023-08-20T08:02:19;13.77;;;7.38;;
22965;SDS011;11649;48.090;9.754;2023-08-20T08:05:14;10.90;;;7.70;;
22965;SDS011;11649;48.090;9.754;2023-08-20T08:07:44;11.07;;;7.20;;
22965;SDS011;11649;48.090;9.754;2023-08-20T08:10:19;11.43;;;7.00;;
22965;SDS011;11649;48.090;9.754;2023-08-20T08:12:49;14.95;;;7.40;;
22965;SDS011;11649;48.090;9.754;2023-08-20T08:15:15;10.95;;;7.97;;
22965;SDS011;11649;48.090;9.754;2023-08-20T08:17:42;11.23;;;6.78;;
22965;SDS011;11649;48.090;9.754;2023-08-20T08:20:10;8.55;;;7.28;;
22965;SDS011;11649;48.090;9.754;2023-08-20T08:22:37;8.43;;;7.38;;
22965;SDS011;11649;48.090;9.754;2023-08-20T08:25:04;9.98;;;7.78;;
22965;SDS011;11649;48.090;9.754;2023-08-20T08:27:31;12.23;;;7.20;;
22965;SDS011;11649;48.090;9.754;2023-08-20T08:30:06;10.15;;;7.78;;
22965;SDS011;11649;48.090;9.754;2023-08-20T08:32:33;10.00;;;7.63;;
22965;SDS011;11649;48.090;9.754;2023-08-20T08:35:00;7.82;;;6.88;;
22965;SDS011;11649;48.090;9.754;2023-08-20T08:37:27;10.27;;;6.78;;
22965;SDS011;11649;48.090;9.754;2023-08-20T08:39:53;10.07;;;7.40;;
22965;SDS011;11649;48.090;9.754;2023-08-20T08:42:21;9.10;;;7.57;;
22965;SDS011;11649;48.090;9.754;2023-08-20T08:44:50;11.55;;;7.72;;
22965;SDS011;11649;48.090;9.754;2023-08-20T08:47:18;14.98;;;7.53;;
22965;SDS011;11649;48.090;9.754;2023-08-20T08:49:45;8.93;;;6.97;;
22965;SDS011;11649;48.090;9.754;2023-08-20T08:52:13;11.43;;;7.47;;
22965;SDS011;11649;48.090;9.754;2023-08-20T08:54:41;9.07;;;7.00;;
22965;SDS011;11649;48.090;9.754;2023-08-20T08:57:08;9.45;;;7.20;;
22965;SDS011;11649;48.090;9.754;2023-08-20T08:59:35;9.57;;;6.93;;
22965;SDS011;11649;48.090;9.754;2023-08-20T09:02:04;8.38;;;6.50;;
22965;SDS011;11649;48.090;9.754;2023-08-20T09:04:39;8.97;;;6.93;;
22965;SDS011;11649;48.090;9.754;2023-08-20T09:07:12;13.37;;;7.10;;
22965;SDS011;11649;48.090;9.754;2023-08-20T09:09:44;12.35;;;7.30;;
22965;SDS011;11649;48.090;9.754;2023-08-20T09:12:13;10.07;;;7.13;;
22965;SDS011;11649;48.090;9.754;2023-08-20T09:14:55;10.80;;;7.25;;
22965;SDS011;11649;48.090;9.754;2023-08-20T09:17:43;12.90;;;7.13;;
22965;SDS011;11649;48.090;9.754;2023-08-20T09:20:10;7.45;;;6.07;;
22965;SDS011;11649;48.090;9.754;2023-08-20T09:22:37;8.77;;;6.75;;
22965;SDS011;11649;48.090;9.754;2023-08-20T09:25:04;8.30;;;6.78;;
22965;SDS011;11649;48.090;9.754;2023-08-20T09:27:38;8.95;;;6.57;;
22965;SDS011;11649;48.090;9.754;2023-08-20T09:30:06;15.82;;;7.78;;
22965;SDS011;11649;48.090;9.754;2023-08-20T09:32:33;8.60;;;6.60;;
22965;SDS011;11649;48.090;9.754;2023-08-20T09:35:00;9.32;;;6.32;;
22965;SDS011;11649;48.090;9.754;2023-08-20T09:37:27;7.65;;;6.05;;
22965;SDS011;11649;48.090;9.754;2023-08-20T09:39:54;7.32;;;5.88;;
22965;SDS011;11649;48.090;9.754;2023-08-20T09:42:20;10.52;;;6.03;;
22965;SDS011;11649;48.090;9.754;2023-08-20T09:44:47;10.90;;;6.03;;
22965;SDS011;11649;48.090;9.754;2023-08-20T09:47:17;10.18;;;5.78;;
22965;SDS011;11649;48.090;9.754;2023-08-20T09:49:47;10.25;;;6.07;;
22965;SDS011;11649;48.090;9.754;2023-08-20T09:52:21;10.32;;;6.30;;
22965;SDS011;11649;48.090;9.754;2023-08-20T09:57:42;10.55;;;5.35;;
22965;SDS011;11649;48.090;9.754;2023-08-20T10:00:12;8.48;;;5.53;;
22965;SDS011;11649;48.090;9.754;2023-08-20T10:02:40;9.90;;;5.75;;
22965;SDS011;11649;48.090;9.754;2023-08-20T10:05:09;6.80;;;5.40;;
22965;SDS011;11649;48.090;9.754;2023-08-20T10:07:37;6.78;;;5.50;;
22965;SDS011;11649;48.090;9.754;2023-08-20T10:10:05;8.52;;;4.90;;
22965;SDS011;11649;48.090;9.754;2023-08-20T10:12:34;6.85;;;4.97;;
22965;SDS011;11649;48.090;9.754;2023-08-20T10:15:02;5.90;;;5.00;;
22965;SDS011;11649;48.090;9.754;2023-08-20T10:17:30;9.48;;;5.35;;
22965;SDS011;11649;48.090;9.754;2023-08-20T10:20:00;8.93;;;5.10;;
22965;SDS011;11649;48.090;9.754;2023-08-20T10:22:37;10.73;;;4.82;;
22965;SDS011;11649;48.090;9.754;2023-08-20T10:25:08;8.43;;;5.13;;
22965;SDS011;11649;48.090;9.754;2023-08-20T10:27:48;11.77;;;5.68;;
22965;SDS011;11649;48.090;9.754;2023-08-20T10:30:19;9.18;;;5.10;;
22965;SDS011;11649;48.090;9.754;2023-08-20T10:32:58;7.30;;;5.13;;
22965;SDS011;11649;48.090;9.754;2023-08-20T10:38:14;8.05;;;5.47;;
22965;SDS011;11649;48.090;9.754;2023-08-20T10:40:49;12.43;;;5.70;;
22965;SDS011;11649;48.090;9.754;2023-08-20T10:46:05;6.78;;;4.90;;
22965;SDS011;11649;48.090;9.754;2023-08-20T10:48:36;6.93;;;5.20;;
22965;SDS011;11649;48.090;9.754;2023-08-20T10:53:39;8.15;;;5.25;;
22965;SDS011;11649;48.090;9.754;2023-08-20T10:56:14;11.38;;;5.93;;
22965;SDS011;11649;48.090;9.754;2023-08-20T10:58:43;8.25;;;5.30;;
22965;SDS011;11649;48.090;9.754;2023-08-20T11:01:21;8.48;;;5.47;;
22965;SDS011;11649;48.090;9.754;2023-08-20T11:03:49;9.40;;;5.90;;
22965;SDS011;11649;48.090;9.754;2023-08-20T11:06:17;8.00;;;5.45;;
22965;SDS011;11649;48.090;9.754;2023-08-20T11:08:44;15.38;;;6.18;;
22965;SDS011;11649;48.090;9.754;2023-08-20T11:11:12;7.63;;;5.38;;
22965;SDS011;11649;48.090;9.754;2023-08-20T11:13:39;9.40;;;5.50;;
22965;SDS011;11649;48.090;9.754;2023-08-20T11:16:06;7.43;;;5.65;;
22965;SDS011;11649;48.090;9.754;2023-08-20T11:18:34;14.88;;;6.35;;
22965;SDS011;11649;48.090;9.754;2023-08-20T11:21:01;11.70;;;5.88;;
22965;SDS011;11649;48.090;9.754;2023-08-20T11:23:29;6.95;;;5.05;;
22965;SDS011;11649;48.090;9.754;2023-08-20T11:25:56;7.82;;;5.38;;
22965;SDS011;11649;48.090;9.754;2023-08-20T11:28:24;7.47;;;5.32;;
22965;SDS011;11649;48.090;9.754;2023-08-20T11:30:52;8.93;;;5.22;;
22965;SDS011;11649;48.090;9.754;2023-08-20T11:33:20;8.85;;;5.45;;
22965;SDS011;11649;48.090;9.754;2023-08-20T11:35:48;7.20;;;5.32;;
22965;SDS011;11649;48.090;9.754;2023-08-20T11:38:14;10.68;;;6.05;;
22965;SDS011;11649;48.090;9.754;2023-08-20T11:40:46;11.20;;;5.68;;
22965;SDS011;11649;48.090;9.754;2023-08-20T11:43:12;9.38;;;5.82;;
22965;SDS011;11649;48.090;9.754;2023-08-20T11:45:46;8.93;;;5.60;;
22965;SDS011;11649;48.090;9.754;2023-08-20T11:48:15;9.43;;;5.70;;
22965;SDS011;11649;48.090;9.754;2023-08-20T11:50:45;8.55;;;5.40;;
22965;SDS011;11649;48.090;9.754;2023-08-20T11:53:12;9.13;;;5.10;;
22965;SDS011;11649;48.090;9.754;2023-08-20T11:55:39;9.93;;;5.40;;
22965;SDS011;11649;48.090;9.754;2023-08-20T11:58:13;8.63;;;5.60;;
22965;SDS011;11649;48.090;9.754;2023-08-20T12:00:40;9.18;;;6.15;;
22965;SDS011;11649;48.090;9.754;2023-08-20T12:03:08;10.00;;;5.68;;
22965;SDS011;11649;48.090;9.754;2023-08-20T12:05:35;7.72;;;5.40;;
22965;SDS011;11649;48.090;9.754;2023-08-20T12:08:03;10.55;;;5.35;;
22965;SDS011;11649;48.090;9.754;2023-08-20T12:10:33;7.88;;;5.43;;
22965;SDS011;11649;48.090;9.754;2023-08-20T12:13:00;7.70;;;5.40;;
22965;SDS011;11649;48.090;9.754;2023-08-20T12:15:28;9.27;;;5.10;;
22965;SDS011;11649;48.090;9.754;2023-08-20T12:17:56;9.55;;;5.70;;
22965;SDS011;11649;48.090;9.754;2023-08-20T12:20:26;7.55;;;5.10;;
22965;SDS011;11649;48.090;9.754;2023-08-20T12:22:54;8.55;;;5.90;;
22965;SDS011;11649;48.090;9.754;2023-08-20T12:25:21;8.75;;;5.90;;
22965;SDS011;11649;48.090;9.754;2023-08-20T12:27:47;8.07;;;5.47;;
22965;SDS011;11649;48.090;9.754;2023-08-20T12:30:14;7.57;;;5.35;;
22965;SDS011;11649;48.090;9.754;2023-08-20T12:32:41;11.07;;;5.93;;
22965;SDS011;11649;48.090;9.754;2023-08-20T12:35:08;11.68;;;5.85;;
22965;SDS011;11649;48.090;9.754;2023-08-20T12:37:35;11.13;;;5.70;;
22965;SDS011;11649;48.090;9.754;2023-08-20T12:40:03;18.10;;;6.00;;
22965;SDS011;11649;48.090;9.754;2023-08-20T12:42:37;9.35;;;5.60;;
22965;SDS011;11649;48.090;9.754;2023-08-20T12:45:07;7.95;;;5.32;;
22965;SDS011;11649;48.090;9.754;2023-08-20T12:47:36;8.00;;;4.95;;
22965;SDS011;11649;48.090;9.754;2023-08-20T12:50:04;11.57;;;5.65;;
22965;SDS011;11649;48.090;9.754;2023-08-20T12:52:31;14.43;;;5.80;;
22965;SDS011;11649;48.090;9.754;2023-08-20T12:54:59;11.70;;;5.75;;
22965;SDS011;11649;48.090;9.754;2023-08-20T12:57:26;8.63;;;5.40;;
22965;SDS011;11649;48.090;9.754;2023-08-20T12:59:52;10.85;;;5.45;;
22965;SDS011;11649;48.090;9.754;2023-08-20T13:02:19;6.75;;;5.03;;
22965;SDS011;11649;48.090;9.754;2023-08-20T13:04:47;8.57;;;5.50;;
22965;SDS011;11649;48.090;9.754;2023-08-20T13:07:14;7.75;;;4.68;;
22965;SDS011;11649;48.090;9.754;2023-08-20T13:09:41;7.43;;;5.15;;
22965;SDS011;11649;48.090;9.754;2023-08-20T13:12:09;7.10;;;5.22;;
22965;SDS011;11649;48.090;9.754;2023-08-20T13:14:41;8.77;;;5.10;;
22965;SDS011;11649;48.090;9.754;2023-08-20T13:17:08;7.47;;;4.88;;
22965;SDS011;11649;48.090;9.754;2023-08-20T13:19:36;7.82;;;5.10;;
22965;SDS011;11649;48.090;9.754;2023-08-20T13:24:33;11.60;;;5.55;;
22965;SDS011;11649;48.090;9.754;2023-08-20T13:27:00;8.48;;;5.60;;
22965;SDS011;11649;48.090;9.754;2023-08-20T13:29:27;7.82;;;5.00;;
22965;SDS011;11649;48.090;9.754;2023-08-20T13:31:54;8.38;;;5.40;;
22965;SDS011;11649;48.090;9.754;2023-08-20T13:34:21;7.07;;;4.88;;
22965;SDS011;11649;48.090;9.754;2023-08-20T13:36:48;9.80;;;4.75;;
22965;SDS011;11649;48.090;9.754;2023-08-20T13:39:15;8.50;;;4.50;;
22965;SDS011;11649;48.090;9.754;2023-08-20T13:41:41;7.95;;;4.55;;
22965;SDS011;11649;48.090;9.754;2023-08-20T13:44:08;6.68;;;4.35;;
22965;SDS011;11649;48.090;9.754;2023-08-20T13:46:35;11.05;;;4.32;;
22965;SDS011;11649;48.090;9.754;2023-08-20T13:49:02;7.38;;;4.25;;
22965;SDS011;11649;48.090;9.754;2023-08-20T13:51:29;6.63;;;4.38;;
22965;SDS011;11649;48.090;9.754;2023-08-20T13:53:57;7.18;;;3.78;;
22965;SDS011;11649;48.090;9.754;2023-08-20T13:56:24;8.32;;;3.70;;
22965;SDS011;11649;48.090;9.754;2023-08-20T13:58:52;5.13;;;3.30;;
22965;SDS011;11649;48.090;9.754;2023-08-20T14:01:19;7.78;;;3.65;;
22965;SDS011;11649;48.090;9.754;2023-08-20T14:03:46;4.88;;;3.53;;
22965;SDS011;11649;48.090;9.754;2023-08-20T14:06:13;6.68;;;3.60;;
22965;SDS011;11649;48.090;9.754;2023-08-20T14:08:40;6.35;;;3.28;;
22965;SDS011;11649;48.090;9.754;2023-08-20T14:11:06;5.22;;;3.45;;
22965;SDS011;11649;48.090;9.754;2023-08-20T14:13:33;8.18;;;3.60;;
22965;SDS011;11649;48.090;9.754;2023-08-20T14:16:00;6.60;;;3.45;;
22965;SDS011;11649;48.090;9.754;2023-08-20T14:18:27;6.80;;;3.60;;
22965;SDS011;11649;48.090;9.754;2023-08-20T14:20:54;6.97;;;3.60;;
22965;SDS011;11649;48.090;9.754;2023-08-20T14:23:21;9.73;;;3.58;;
22965;SDS011;11649;48.090;9.754;2023-08-20T14:25:48;5.65;;;3.58;;
22965;SDS011;11649;48.090;9.754;2023-08-20T14:28:15;7.07;;;3.75;;
22965;SDS011;11649;48.090;9.754;2023-08-20T14:30:41;7.90;;;3.70;;
22965;SDS011;11649;48.090;9.754;2023-08-20T14:33:08;7.75;;;3.70;;
22965;SDS011;11649;48.090;9.754;2023-08-20T14:35:35;6.47;;;3.25;;
22965;SDS011;11649;48.090;9.754;2023-08-20T14:38:02;10.15;;;3.65;;
22965;SDS011;11649;48.090;9.754;2023-08-20T14:40:29;5.82;;;3.30;;
22965;SDS011;11649;48.090;9.754;2023-08-20T14:42:58;7.10;;;3.40;;
22965;SDS011;11649;48.090;9.754;2023-08-20T14:45:25;8.13;;;3.30;;
22965;SDS011;11649;48.090;9.754;2023-08-20T14:47:51;7.25;;;3.42;;
22965;SDS011;11649;48.090;9.754;2023-08-20T14:50:18;4.88;;;3.10;;
22965;SDS011;11649;48.090;9.754;2023-08-20T14:52:45;8.57;;;3.47;;
22965;SDS011;11649;48.090;9.754;2023-08-20T14:55:18;11.98;;;4.22;;
22965;SDS011;11649;48.090;9.754;2023-08-20T14:57:45;7.40;;;3.80;;
22965;SDS011;11649;48.090;9.754;2023-08-20T15:00:17;8.05;;;3.33;;
22965;SDS011;11649;48.090;9.754;2023-08-20T15:02:44;7.05;;;3.72;;
22965;SDS011;11649;48.090;9.754;2023-08-20T15:05:12;11.32;;;4.20;;
22965;SDS011;11649;48.090;9.754;2023-08-20T15:07:39;7.68;;;4.00;;
22965;SDS011;11649;48.090;9.754;2023-08-20T15:10:06;9.25;;;4.28;;
22965;SDS011;11649;48.090;9.754;2023-08-20T15:12:34;7.45;;;4.07;;
22965;SDS011;11649;48.090;9.754;2023-08-20T15:15:02;5.82;;;3.80;;
22965;SDS011;11649;48.090;9.754;2023-08-20T15:17:30;10.52;;;3.55;;
22965;SDS011;11649;48.090;9.754;2023-08-20T15:20:01;8.35;;;3.60;;
22965;SDS011;11649;48.090;9.754;2023-08-20T15:22:32;8.07;;;3.72;;
22965;SDS011;11649;48.090;9.754;2023-08-20T15:24:59;8.38;;;4.50;;
22965;SDS011;11649;48.090;9.754;2023-08-20T15:27:26;10.20;;;4.05;;
22965;SDS011;11649;48.090;9.754;2023-08-20T15:29:54;9.73;;;3.95;;
22965;SDS011;11649;48.090;9.754;2023-08-20T15:32:21;6.05;;;4.25;;
22965;SDS011;11649;48.090;9.754;2023-08-20T15:34:48;6.10;;;3.50;;